Terminal Aerodrome Forecast
Issued by NWS Lake Charles, LA

Home | Current Version | Previous Version | Text Only | Print | Product List | Glossary On
Versions: 1 2 3 4 5 6 7 8 9 10 11 12 13 14 15 16 17 18 19
000
FTUS44 KLCH 250500
TAFLFT
TAF
KLFT 250520Z 2506/2606 21006KT P6SM SCT026 OVC070
      TEMPO 2509/2512 4SM BR BKN009
     FM251200 34004KT 4SM BR OVC009
     FM251500 03005KT P6SM SCT009=

USA.gov is the U.S. government's official web portal to all federal, state and local government web resources and services.